sensor_id;sensor_type;location;lat;lon;timestamp;temperature;humidity
67182;DHT22;54114;53.524;49.396;2023-04-21T00:02:24;14.00;32.20
67182;DHT22;54114;53.524;49.396;2023-04-21T00:04:52;13.90;32.30
67182;DHT22;54114;53.524;49.396;2023-04-21T00:07:21;13.90;32.40
67182;DHT22;54114;53.524;49.396;2023-04-21T00:09:47;13.80;32.50
67182;DHT22;54114;53.524;49.396;2023-04-21T00:12:14;13.80;32.60
67182;DHT22;54114;53.524;49.396;2023-04-21T00:14:41;13.70;32.90
67182;DHT22;54114;53.524;49.396;2023-04-21T00:17:07;13.80;33.20
67182;DHT22;54114;53.524;49.396;2023-04-21T00:19:34;13.70;33.30
67182;DHT22;54114;53.524;49.396;2023-04-21T00:22:01;13.70;33.60
67182;DHT22;54114;53.524;49.396;2023-04-21T00:24:29;13.70;33.90
67182;DHT22;54114;53.524;49.396;2023-04-21T00:26:55;13.70;34.10
67182;DHT22;54114;53.524;49.396;2023-04-21T00:29:22;13.60;34.40
67182;DHT22;54114;53.524;49.396;2023-04-21T00:31:49;13.50;34.60
67182;DHT22;54114;53.524;49.396;2023-04-21T00:34:15;13.40;34.80
67182;DHT22;54114;53.524;49.396;2023-04-21T00:36:42;13.30;34.90
67182;DHT22;54114;53.524;49.396;2023-04-21T00:39:08;13.30;35.10
67182;DHT22;54114;53.524;49.396;2023-04-21T00:41:36;13.30;35.10
67182;DHT22;54114;53.524;49.396;2023-04-21T00:44:07;13.30;35.10
67182;DHT22;54114;53.524;49.396;2023-04-21T00:46:35;13.40;35.10
67182;DHT22;54114;53.524;49.396;2023-04-21T00:49:05;13.40;35.10
67182;DHT22;54114;53.524;49.396;2023-04-21T00:51:34;13.50;35.20
67182;DHT22;54114;53.524;49.396;2023-04-21T00:54:05;13.40;35.20
67182;DHT22;54114;53.524;49.396;2023-04-21T00:56:34;13.40;35.20
67182;DHT22;54114;53.524;49.396;2023-04-21T00:59:02;13.50;35.20
67182;DHT22;54114;53.524;49.396;2023-04-21T01:01:30;13.50;35.20
67182;DHT22;54114;53.524;49.396;2023-04-21T01:03:59;13.60;35.20
67182;DHT22;54114;53.524;49.396;2023-04-21T01:06:30;13.60;35.20
67182;DHT22;54114;53.524;49.396;2023-04-21T01:08:59;13.60;35.20
67182;DHT22;54114;53.524;49.396;2023-04-21T01:11:26;13.60;35.10
67182;DHT22;54114;53.524;49.396;2023-04-21T01:13:53;13.70;35.00
67182;DHT22;54114;53.524;49.396;2023-04-21T01:16:20;13.70;34.90
67182;DHT22;54114;53.524;49.396;2023-04-21T01:18:50;13.70;34.70
67182;DHT22;54114;53.524;49.396;2023-04-21T01:21:20;13.80;34.70
67182;DHT22;54114;53.524;49.396;2023-04-21T01:23:47;13.80;34.60
67182;DHT22;54114;53.524;49.396;2023-04-21T01:26:17;13.80;34.40
67182;DHT22;54114;53.524;49.396;2023-04-21T01:28:47;13.90;34.50
67182;DHT22;54114;53.524;49.396;2023-04-21T01:31:15;13.90;34.50
67182;DHT22;54114;53.524;49.396;2023-04-21T01:33:43;13.90;34.60
67182;DHT22;54114;53.524;49.396;2023-04-21T01:36:10;14.00;34.70
67182;DHT22;54114;53.524;49.396;2023-04-21T01:38:41;14.00;34.70
67182;DHT22;54114;53.524;49.396;2023-04-21T01:41:08;14.00;34.70
67182;DHT22;54114;53.524;49.396;2023-04-21T01:43:36;13.90;34.90
67182;DHT22;54114;53.524;49.396;2023-04-21T01:46:06;13.90;35.10
67182;DHT22;54114;53.524;49.396;2023-04-21T01:48:35;13.90;35.10
67182;DHT22;54114;53.524;49.396;2023-04-21T01:51:03;13.90;34.80
67182;DHT22;54114;53.524;49.396;2023-04-21T01:53:29;13.90;34.80
67182;DHT22;54114;53.524;49.396;2023-04-21T01:55:56;14.00;34.70
67182;DHT22;54114;53.524;49.396;2023-04-21T01:58:23;14.00;34.60
67182;DHT22;54114;53.524;49.396;2023-04-21T02:00:50;14.10;34.60
67182;DHT22;54114;53.524;49.396;2023-04-21T02:03:17;14.10;34.70
67182;DHT22;54114;53.524;49.396;2023-04-21T02:05:43;14.10;34.70
67182;DHT22;54114;53.524;49.396;2023-04-21T02:08:10;14.20;34.80
67182;DHT22;54114;53.524;49.396;2023-04-21T02:10:37;14.20;34.80
67182;DHT22;54114;53.524;49.396;2023-04-21T02:13:03;14.20;34.70
67182;DHT22;54114;53.524;49.396;2023-04-21T02:15:30;14.30;34.80
67182;DHT22;54114;53.524;49.396;2023-04-21T02:17:57;14.30;34.70
67182;DHT22;54114;53.524;49.396;2023-04-21T02:20:24;14.30;34.70
67182;DHT22;54114;53.524;49.396;2023-04-21T02:22:50;14.40;34.90
67182;DHT22;54114;53.524;49.396;2023-04-21T02:25:17;14.40;34.90
67182;DHT22;54114;53.524;49.396;2023-04-21T02:27:44;14.40;34.80
67182;DHT22;54114;53.524;49.396;2023-04-21T02:30:13;14.50;34.50
67182;DHT22;54114;53.524;49.396;2023-04-21T02:32:40;14.60;34.30
67182;DHT22;54114;53.524;49.396;2023-04-21T02:35:07;14.70;34.10
67182;DHT22;54114;53.524;49.396;2023-04-21T02:37:35;14.90;34.00
67182;DHT22;54114;53.524;49.396;2023-04-21T02:40:01;15.00;34.10
67182;DHT22;54114;53.524;49.396;2023-04-21T02:42:28;15.00;34.10
67182;DHT22;54114;53.524;49.396;2023-04-21T02:44:57;15.20;34.10
67182;DHT22;54114;53.524;49.396;2023-04-21T02:47:24;15.30;34.10
67182;DHT22;54114;53.524;49.396;2023-04-21T02:49:50;15.40;34.00
67182;DHT22;54114;53.524;49.396;2023-04-21T02:52:17;15.50;34.20
67182;DHT22;54114;53.524;49.396;2023-04-21T02:54:44;15.60;34.00
67182;DHT22;54114;53.524;49.396;2023-04-21T02:57:10;15.70;33.80
67182;DHT22;54114;53.524;49.396;2023-04-21T02:59:37;15.80;33.50
67182;DHT22;54114;53.524;49.396;2023-04-21T03:02:04;15.90;33.30
67182;DHT22;54114;53.524;49.396;2023-04-21T03:04:32;16.00;33.20
67182;DHT22;54114;53.524;49.396;2023-04-21T03:06:59;16.10;33.00
67182;DHT22;54114;53.524;49.396;2023-04-21T03:09:26;16.20;33.00
67182;DHT22;54114;53.524;49.396;2023-04-21T03:11:52;16.30;33.00
67182;DHT22;54114;53.524;49.396;2023-04-21T03:14:19;16.30;33.00
67182;DHT22;54114;53.524;49.396;2023-04-21T03:16:45;16.40;33.20
67182;DHT22;54114;53.524;49.396;2023-04-21T03:19:15;16.50;33.30
67182;DHT22;54114;53.524;49.396;2023-04-21T03:21:42;16.60;33.20
67182;DHT22;54114;53.524;49.396;2023-04-21T03:24:08;16.70;33.00
67182;DHT22;54114;53.524;49.396;2023-04-21T03:26:38;16.80;32.70
67182;DHT22;54114;53.524;49.396;2023-04-21T03:29:06;17.10;32.40
67182;DHT22;54114;53.524;49.396;2023-04-21T03:31:32;17.20;32.00
67182;DHT22;54114;53.524;49.396;2023-04-21T03:33:59;17.40;31.80
67182;DHT22;54114;53.524;49.396;2023-04-21T03:36:26;17.50;31.50
67182;DHT22;54114;53.524;49.396;2023-04-21T03:38:56;17.50;31.30
67182;DHT22;54114;53.524;49.396;2023-04-21T03:41:23;17.70;31.30
67182;DHT22;54114;53.524;49.396;2023-04-21T03:43:54;17.80;31.00
67182;DHT22;54114;53.524;49.396;2023-04-21T03:46:25;17.90;30.70
67182;DHT22;54114;53.524;49.396;2023-04-21T03:48:54;18.10;30.40
67182;DHT22;54114;53.524;49.396;2023-04-21T03:51:23;18.20;30.30
67182;DHT22;54114;53.524;49.396;2023-04-21T03:53:55;18.30;30.10
67182;DHT22;54114;53.524;49.396;2023-04-21T03:56:22;18.40;30.00
67182;DHT22;54114;53.524;49.396;2023-04-21T03:58:51;18.50;29.90
67182;DHT22;54114;53.524;49.396;2023-04-21T04:01:18;18.60;29.70
67182;DHT22;54114;53.524;49.396;2023-04-21T04:03:45;18.70;29.40
67182;DHT22;54114;53.524;49.396;2023-04-21T04:06:16;18.90;29.20
67182;DHT22;54114;53.524;49.396;2023-04-21T04:08:45;19.10;29.00
67182;DHT22;54114;53.524;49.396;2023-04-21T04:11:12;19.20;29.00
67182;DHT22;54114;53.524;49.396;2023-04-21T04:13:38;19.40;28.20
67182;DHT22;54114;53.524;49.396;2023-04-21T04:16:05;19.60;27.80
67182;DHT22;54114;53.524;49.396;2023-04-21T04:18:32;19.80;27.60
67182;DHT22;54114;53.524;49.396;2023-04-21T04:21:07;19.90;27.30
67182;DHT22;54114;53.524;49.396;2023-04-21T04:23:36;20.10;27.10
67182;DHT22;54114;53.524;49.396;2023-04-21T04:26:02;20.30;27.00
67182;DHT22;54114;53.524;49.396;2023-04-21T04:28:30;20.50;26.80
67182;DHT22;54114;53.524;49.396;2023-04-21T04:30:57;20.60;26.60
67182;DHT22;54114;53.524;49.396;2023-04-21T04:33:25;20.90;26.40
67182;DHT22;54114;53.524;49.396;2023-04-21T04:35:52;21.10;26.20
67182;DHT22;54114;53.524;49.396;2023-04-21T04:38:19;21.40;26.00
67182;DHT22;54114;53.524;49.396;2023-04-21T04:40:54;21.70;25.80
67182;DHT22;54114;53.524;49.396;2023-04-21T04:43:22;21.90;25.50
67182;DHT22;54114;53.524;49.396;2023-04-21T04:45:50;22.20;25.40
67182;DHT22;54114;53.524;49.396;2023-04-21T04:48:16;22.50;25.20
67182;DHT22;54114;53.524;49.396;2023-04-21T04:50:46;22.70;25.00
67182;DHT22;54114;53.524;49.396;2023-04-21T04:53:17;22.90;24.90
67182;DHT22;54114;53.524;49.396;2023-04-21T04:55:51;23.10;24.70
67182;DHT22;54114;53.524;49.396;2023-04-21T04:58:21;23.30;24.30
67182;DHT22;54114;53.524;49.396;2023-04-21T05:00:47;23.50;24.20
67182;DHT22;54114;53.524;49.396;2023-04-21T05:03:16;23.70;24.10
67182;DHT22;54114;53.524;49.396;2023-04-21T05:05:48;23.90;23.90
67182;DHT22;54114;53.524;49.396;2023-04-21T05:08:17;24.10;23.60
67182;DHT22;54114;53.524;49.396;2023-04-21T05:10:46;24.20;23.50
67182;DHT22;54114;53.524;49.396;2023-04-21T05:13:16;24.20;23.30
67182;DHT22;54114;53.524;49.396;2023-04-21T05:15:47;24.40;23.30
67182;DHT22;54114;53.524;49.396;2023-04-21T05:18:14;24.50;23.20
67182;DHT22;54114;53.524;49.396;2023-04-21T05:20:45;24.70;23.10
67182;DHT22;54114;53.524;49.396;2023-04-21T05:23:11;24.80;22.90
67182;DHT22;54114;53.524;49.396;2023-04-21T05:25:38;24.80;22.70
67182;DHT22;54114;53.524;49.396;2023-04-21T05:28:05;24.90;22.70
67182;DHT22;54114;53.524;49.396;2023-04-21T05:30:31;24.90;22.50
67182;DHT22;54114;53.524;49.396;2023-04-21T05:32:58;25.00;22.40
67182;DHT22;54114;53.524;49.396;2023-04-21T05:35:25;24.90;22.30
67182;DHT22;54114;53.524;49.396;2023-04-21T08:10:22;20.00;24.50
67182;DHT22;54114;53.524;49.396;2023-04-21T08:12:51;21.20;24.20
67182;DHT22;54114;53.524;49.396;2023-04-21T08:15:21;21.00;24.30
67182;DHT22;54114;53.524;49.396;2023-04-21T08:17:50;21.00;24.50
67182;DHT22;54114;53.524;49.396;2023-04-21T08:20:19;21.00;24.70
67182;DHT22;54114;53.524;49.396;2023-04-21T08:22:50;20.90;24.70
67182;DHT22;54114;53.524;49.396;2023-04-21T08:25:20;21.00;24.70
67182;DHT22;54114;53.524;49.396;2023-04-21T08:27:49;21.10;24.70
67182;DHT22;54114;53.524;49.396;2023-04-21T08:30:15;21.30;24.60
67182;DHT22;54114;53.524;49.396;2023-04-21T08:32:42;21.40;24.40
67182;DHT22;54114;53.524;49.396;2023-04-21T08:35:11;21.60;24.40
67182;DHT22;54114;53.524;49.396;2023-04-21T08:37:42;21.80;24.20
67182;DHT22;54114;53.524;49.396;2023-04-21T08:40:12;22.20;24.00
67182;DHT22;54114;53.524;49.396;2023-04-21T08:42:44;22.70;23.70
67182;DHT22;54114;53.524;49.396;2023-04-21T08:45:13;22.90;23.50
67182;DHT22;54114;53.524;49.396;2023-04-21T08:47:40;23.00;23.40
67182;DHT22;54114;53.524;49.396;2023-04-21T08:50:11;23.20;23.20
67182;DHT22;54114;53.524;49.396;2023-04-21T08:52:39;23.20;23.10
67182;DHT22;54114;53.524;49.396;2023-04-21T08:55:06;23.20;23.20
67182;DHT22;54114;53.524;49.396;2023-04-21T08:57:33;23.30;23.10
67182;DHT22;54114;53.524;49.396;2023-04-21T09:00:00;23.20;23.10
67182;DHT22;54114;53.524;49.396;2023-04-21T09:02:27;23.20;23.40
67182;DHT22;54114;53.524;49.396;2023-04-21T09:04:55;23.20;24.00
67182;DHT22;54114;53.524;49.396;2023-04-21T09:07:39;23.00;24.10
67182;DHT22;54114;53.524;49.396;2023-04-21T09:10:07;22.90;24.30
67182;DHT22;54114;53.524;49.396;2023-04-21T09:12:39;22.90;24.30
67182;DHT22;54114;53.524;49.396;2023-04-21T09:15:10;23.10;24.10
67182;DHT22;54114;53.524;49.396;2023-04-21T09:17:43;23.40;23.90
67182;DHT22;54114;53.524;49.396;2023-04-21T09:20:18;23.70;23.70
67182;DHT22;54114;53.524;49.396;2023-04-21T09:22:53;23.90;23.60
67182;DHT22;54114;53.524;49.396;2023-04-21T09:25:23;23.90;23.70
67182;DHT22;54114;53.524;49.396;2023-04-21T09:27:53;23.90;23.70
67182;DHT22;54114;53.524;49.396;2023-04-21T09:30:23;23.90;23.80
67182;DHT22;54114;53.524;49.396;2023-04-21T09:32:55;23.80;23.90
67182;DHT22;54114;53.524;49.396;2023-04-21T09:35:27;23.80;24.20
67182;DHT22;54114;53.524;49.396;2023-04-21T09:37:54;23.70;24.70
67182;DHT22;54114;53.524;49.396;2023-04-21T09:40:21;23.50;24.90
67182;DHT22;54114;53.524;49.396;2023-04-21T09:42:48;23.30;25.00
67182;DHT22;54114;53.524;49.396;2023-04-21T09:45:15;23.20;25.30
67182;DHT22;54114;53.524;49.396;2023-04-21T09:47:42;23.10;25.40
67182;DHT22;54114;53.524;49.396;2023-04-21T09:50:13;23.20;25.40
67182;DHT22;54114;53.524;49.396;2023-04-21T09:52:42;23.40;25.40
67182;DHT22;54114;53.524;49.396;2023-04-21T09:55:20;23.50;25.20
67182;DHT22;54114;53.524;49.396;2023-04-21T09:57:59;23.60;25.10
67182;DHT22;54114;53.524;49.396;2023-04-21T10:00:27;23.60;24.90
67182;DHT22;54114;53.524;49.396;2023-04-21T10:02:56;23.70;25.00
67182;DHT22;54114;53.524;49.396;2023-04-21T10:05:26;23.60;25.40
67182;DHT22;54114;53.524;49.396;2023-04-21T10:07:55;23.80;25.00
67182;DHT22;54114;53.524;49.396;2023-04-21T10:10:30;23.90;24.90
67182;DHT22;54114;53.524;49.396;2023-04-21T10:13:00;24.20;24.80
67182;DHT22;54114;53.524;49.396;2023-04-21T10:15:38;24.40;24.60
67182;DHT22;54114;53.524;49.396;2023-04-21T10:18:26;24.60;24.40
67182;DHT22;54114;53.524;49.396;2023-04-21T10:21:11;24.80;24.30
67182;DHT22;54114;53.524;49.396;2023-04-21T10:23:56;25.00;24.20
67182;DHT22;54114;53.524;49.396;2023-04-21T10:26:25;25.00;24.00
67182;DHT22;54114;53.524;49.396;2023-04-21T10:29:00;25.00;24.60
67182;DHT22;54114;53.524;49.396;2023-04-21T10:31:48;24.90;24.00
67182;DHT22;54114;53.524;49.396;2023-04-21T10:34:18;24.90;24.30
67182;DHT22;54114;53.524;49.396;2023-04-21T10:39:28;25.20;24.10
67182;DHT22;54114;53.524;49.396;2023-04-21T10:42:17;25.50;24.00
67182;DHT22;54114;53.524;49.396;2023-04-21T10:50:28;25.30;23.80
67182;DHT22;54114;53.524;49.396;2023-04-21T10:52:58;25.00;23.90
67182;DHT22;54114;53.524;49.396;2023-04-21T10:55:33;24.80;24.00
67182;DHT22;54114;53.524;49.396;2023-04-21T10:58:07;24.60;24.10
67182;DHT22;54114;53.524;49.396;2023-04-21T11:00:37;24.60;24.20
67182;DHT22;54114;53.524;49.396;2023-04-21T11:03:11;24.70;24.20
67182;DHT22;54114;53.524;49.396;2023-04-21T11:05:41;24.70;24.00
67182;DHT22;54114;53.524;49.396;2023-04-21T11:08:13;24.60;24.60
67182;DHT22;54114;53.524;49.396;2023-04-21T11:10:52;24.50;24.10
67182;DHT22;54114;53.524;49.396;2023-04-21T11:13:24;24.60;24.10
67182;DHT22;54114;53.524;49.396;2023-04-21T11:16:05;24.70;24.10
67182;DHT22;54114;53.524;49.396;2023-04-21T11:21:18;24.90;24.00
67182;DHT22;54114;53.524;49.396;2023-04-21T11:23:51;24.90;24.00
67182;DHT22;54114;53.524;49.396;2023-04-21T11:26:37;24.90;23.90
67182;DHT22;54114;53.524;49.396;2023-04-21T11:29:05;24.80;24.00
67182;DHT22;54114;53.524;49.396;2023-04-21T11:31:40;24.80;24.10
67182;DHT22;54114;53.524;49.396;2023-04-21T11:34:13;24.70;24.00
67182;DHT22;54114;53.524;49.396;2023-04-21T11:36:47;24.60;24.10
67182;DHT22;54114;53.524;49.396;2023-04-21T11:39:15;24.50;24.30
67182;DHT22;54114;53.524;49.396;2023-04-21T11:41:47;24.50;24.30
67182;DHT22;54114;53.524;49.396;2023-04-21T11:44:38;24.50;24.30
67182;DHT22;54114;53.524;49.396;2023-04-21T11:47:17;24.30;24.30
67182;DHT22;54114;53.524;49.396;2023-04-21T11:49:59;24.20;24.30
67182;DHT22;54114;53.524;49.396;2023-04-21T11:52:33;24.00;24.40
67182;DHT22;54114;53.524;49.396;2023-04-21T11:55:13;23.90;24.40
67182;DHT22;54114;53.524;49.396;2023-04-21T11:57:49;23.80;24.50
67182;DHT22;54114;53.524;49.396;2023-04-21T12:00:21;23.80;24.70
67182;DHT22;54114;53.524;49.396;2023-04-21T12:02:55;23.70;24.60
67182;DHT22;54114;53.524;49.396;2023-04-21T12:05:33;23.50;24.80
67182;DHT22;54114;53.524;49.396;2023-04-21T12:08:03;23.40;24.90
67182;DHT22;54114;53.524;49.396;2023-04-21T12:10:35;23.30;25.00
67182;DHT22;54114;53.524;49.396;2023-04-21T12:13:02;23.30;25.10
67182;DHT22;54114;53.524;49.396;2023-04-21T12:15:29;23.30;25.00
67182;DHT22;54114;53.524;49.396;2023-04-21T12:17:56;23.40;25.00
67182;DHT22;54114;53.524;49.396;2023-04-21T12:20:23;23.60;24.90
67182;DHT22;54114;53.524;49.396;2023-04-21T12:22:53;24.00;24.60
67182;DHT22;54114;53.524;49.396;2023-04-21T12:25:21;24.30;24.30
67182;DHT22;54114;53.524;49.396;2023-04-21T12:27:53;24.30;24.10
67182;DHT22;54114;53.524;49.396;2023-04-21T12:30:23;24.30;24.10
67182;DHT22;54114;53.524;49.396;2023-04-21T12:32:50;24.60;24.10
67182;DHT22;54114;53.524;49.396;2023-04-21T12:35:18;24.70;24.10
67182;DHT22;54114;53.524;49.396;2023-04-21T12:37:48;24.90;24.00
67182;DHT22;54114;53.524;49.396;2023-04-21T12:40:17;25.00;23.80
67182;DHT22;54114;53.524;49.396;2023-04-21T12:42:47;25.10;23.70
67182;DHT22;54114;53.524;49.396;2023-04-21T12:45:13;25.10;23.60
67182;DHT22;54114;53.524;49.396;2023-04-21T12:47:40;25.00;23.60
67182;DHT22;54114;53.524;49.396;2023-04-21T12:50:13;24.90;23.70
67182;DHT22;54114;53.524;49.396;2023-04-21T12:52:45;25.00;23.70
67182;DHT22;54114;53.524;49.396;2023-04-21T12:55:16;24.90;23.70
67182;DHT22;54114;53.524;49.396;2023-04-21T12:57:48;24.70;23.80
67182;DHT22;54114;53.524;49.396;2023-04-21T13:00:18;24.50;23.90
67182;DHT22;54114;53.524;49.396;2023-04-21T13:02:47;24.20;24.70
67182;DHT22;54114;53.524;49.396;2023-04-21T13:05:14;24.00;24.20
67182;DHT22;54114;53.524;49.396;2023-04-21T13:07:43;23.80;24.40
67182;DHT22;54114;53.524;49.396;2023-04-21T13:10:12;23.60;24.50
67182;DHT22;54114;53.524;49.396;2023-04-21T13:12:43;23.50;24.60
67182;DHT22;54114;53.524;49.396;2023-04-21T13:15:17;23.40;24.60
67182;DHT22;54114;53.524;49.396;2023-04-21T13:17:44;23.30;24.80
67182;DHT22;54114;53.524;49.396;2023-04-21T13:20:11;23.20;24.80
67182;DHT22;54114;53.524;49.396;2023-04-21T13:22:44;23.10;24.90
67182;DHT22;54114;53.524;49.396;2023-04-21T13:25:13;23.00;25.00
67182;DHT22;54114;53.524;49.396;2023-04-21T13:27:40;22.90;25.10
67182;DHT22;54114;53.524;49.396;2023-04-21T13:30:09;22.90;25.20
67182;DHT22;54114;53.524;49.396;2023-04-21T13:32:45;22.90;25.30
67182;DHT22;54114;53.524;49.396;2023-04-21T13:35:15;22.80;25.30
67182;DHT22;54114;53.524;49.396;2023-04-21T13:37:45;22.70;25.40
67182;DHT22;54114;53.524;49.396;2023-04-21T13:40:13;22.70;25.50
67182;DHT22;54114;53.524;49.396;2023-04-21T13:42:42;22.70;25.50
67182;DHT22;54114;53.524;49.396;2023-04-21T13:45:09;22.60;25.60
67182;DHT22;54114;53.524;49.396;2023-04-21T13:47:36;22.50;25.60
67182;DHT22;54114;53.524;49.396;2023-04-21T13:50:03;22.40;25.70
67182;DHT22;54114;53.524;49.396;2023-04-21T13:52:30;22.30;25.80
67182;DHT22;54114;53.524;49.396;2023-04-21T13:54:59;22.20;25.90
67182;DHT22;54114;53.524;49.396;2023-04-21T13:57:26;22.10;26.00
67182;DHT22;54114;53.524;49.396;2023-04-21T13:59:53;22.10;26.00
67182;DHT22;54114;53.524;49.396;2023-04-21T14:02:22;22.10;26.10
67182;DHT22;54114;53.524;49.396;2023-04-21T14:04:52;22.00;26.00
67182;DHT22;54114;53.524;49.396;2023-04-21T14:07:25;21.90;26.10
67182;DHT22;54114;53.524;49.396;2023-04-21T14:09:51;21.80;26.20
67182;DHT22;54114;53.524;49.396;2023-04-21T14:12:19;21.70;26.30
67182;DHT22;54114;53.524;49.396;2023-04-21T14:14:48;21.60;26.30
67182;DHT22;54114;53.524;49.396;2023-04-21T14:17:14;21.50;26.50
67182;DHT22;54114;53.524;49.396;2023-04-21T14:19:43;21.30;26.50
67182;DHT22;54114;53.524;49.396;2023-04-21T14:22:10;21.10;26.60
67182;DHT22;54114;53.524;49.396;2023-04-21T14:24:37;21.10;26.80
67182;DHT22;54114;53.524;49.396;2023-04-21T14:27:09;21.00;26.80
67182;DHT22;54114;53.524;49.396;2023-04-21T14:29:35;21.10;26.90
67182;DHT22;54114;53.524;49.396;2023-04-21T14:32:08;21.20;26.80
67182;DHT22;54114;53.524;49.396;2023-04-21T14:34:35;21.20;26.70
67182;DHT22;54114;53.524;49.396;2023-04-21T14:37:01;21.20;26.70
67182;DHT22;54114;53.524;49.396;2023-04-21T14:39:28;21.10;26.60
67182;DHT22;54114;53.524;49.396;2023-04-21T14:41:55;21.00;26.60
67182;DHT22;54114;53.524;49.396;2023-04-21T14:44:24;20.90;26.80
67182;DHT22;54114;53.524;49.396;2023-04-21T14:46:51;20.70;27.00
67182;DHT22;54114;53.524;49.396;2023-04-21T14:49:18;20.60;27.20
67182;DHT22;54114;53.524;49.396;2023-04-21T14:51:47;20.40;27.40
67182;DHT22;54114;53.524;49.396;2023-04-21T14:54:16;20.30;27.60
67182;DHT22;54114;53.524;49.396;2023-04-21T14:56:47;20.10;27.90
67182;DHT22;54114;53.524;49.396;2023-04-21T14:59:16;19.80;28.20
67182;DHT22;54114;53.524;49.396;2023-04-21T15:01:43;19.60;29.10
67182;DHT22;54114;53.524;49.396;2023-04-21T15:04:14;19.30;29.70
67182;DHT22;54114;53.524;49.396;2023-04-21T15:06:41;19.20;29.70
67182;DHT22;54114;53.524;49.396;2023-04-21T15:09:07;19.00;29.80
67182;DHT22;54114;53.524;49.396;2023-04-21T15:11:36;18.90;30.00
67182;DHT22;54114;53.524;49.396;2023-04-21T15:14:03;18.80;30.60
67182;DHT22;54114;53.524;49.396;2023-04-21T15:16:30;18.70;30.70
67182;DHT22;54114;53.524;49.396;2023-04-21T15:18:56;18.70;30.90
67182;DHT22;54114;53.524;49.396;2023-04-21T15:21:25;18.60;31.00
67182;DHT22;54114;53.524;49.396;2023-04-21T15:23:59;18.50;31.10
67182;DHT22;54114;53.524;49.396;2023-04-21T15:26:26;18.50;31.10
67182;DHT22;54114;53.524;49.396;2023-04-21T15:28:55;18.50;30.90
67182;DHT22;54114;53.524;49.396;2023-04-21T15:31:23;18.40;30.80
67182;DHT22;54114;53.524;49.396;2023-04-21T15:33:49;18.40;31.10
67182;DHT22;54114;53.524;49.396;2023-04-21T15:36:16;18.30;31.20
67182;DHT22;54114;53.524;49.396;2023-04-21T15:38:45;18.10;31.20
67182;DHT22;54114;53.524;49.396;2023-04-21T15:41:12;18.10;31.30
67182;DHT22;54114;53.524;49.396;2023-04-21T15:43:45;18.10;31.50
67182;DHT22;54114;53.524;49.396;2023-04-21T15:46:12;18.00;31.50
67182;DHT22;54114;53.524;49.396;2023-04-21T15:48:45;18.00;31.60
67182;DHT22;54114;53.524;49.396;2023-04-21T15:51:12;17.90;31.70
67182;DHT22;54114;53.524;49.396;2023-04-21T15:53:39;17.90;31.90
67182;DHT22;54114;53.524;49.396;2023-04-21T15:56:14;17.90;31.90
67182;DHT22;54114;53.524;49.396;2023-04-21T15:58:43;17.80;32.00
67182;DHT22;54114;53.524;49.396;2023-04-21T16:01:10;17.80;32.20
67182;DHT22;54114;53.524;49.396;2023-04-21T16:03:40;17.70;32.60
67182;DHT22;54114;53.524;49.396;2023-04-21T16:06:07;17.60;32.80
67182;DHT22;54114;53.524;49.396;2023-04-21T16:08:33;17.60;33.10
67182;DHT22;54114;53.524;49.396;2023-04-21T16:11:00;17.50;33.30
67182;DHT22;54114;53.524;49.396;2023-04-21T16:13:30;17.40;33.40
67182;DHT22;54114;53.524;49.396;2023-04-21T16:15:57;17.40;33.60
67182;DHT22;54114;53.524;49.396;2023-04-21T16:18:23;17.40;33.70
67182;DHT22;54114;53.524;49.396;2023-04-21T16:20:50;17.30;33.60
67182;DHT22;54114;53.524;49.396;2023-04-21T16:23:18;17.30;33.70
67182;DHT22;54114;53.524;49.396;2023-04-21T16:25:45;17.30;33.70
67182;DHT22;54114;53.524;49.396;2023-04-21T16:28:11;17.30;33.70
67182;DHT22;54114;53.524;49.396;2023-04-21T16:30:43;17.30;33.80
67182;DHT22;54114;53.524;49.396;2023-04-21T16:33:14;17.20;33.70
67182;DHT22;54114;53.524;49.396;2023-04-21T16:35:44;17.20;33.80
67182;DHT22;54114;53.524;49.396;2023-04-21T16:38:10;17.20;33.90
67182;DHT22;54114;53.524;49.396;2023-04-21T16:40:43;17.20;33.90
67182;DHT22;54114;53.524;49.396;2023-04-21T16:43:09;17.20;34.10
67182;DHT22;54114;53.524;49.396;2023-04-21T16:45:44;17.20;34.20
67182;DHT22;54114;53.524;49.396;2023-04-21T16:48:15;17.20;34.30
67182;DHT22;54114;53.524;49.396;2023-04-21T16:50:42;17.10;34.30
67182;DHT22;54114;53.524;49.396;2023-04-21T16:53:13;17.10;34.60
67182;DHT22;54114;53.524;49.396;2023-04-21T16:55:39;17.00;34.80
67182;DHT22;54114;53.524;49.396;2023-04-21T16:58:06;17.00;34.90
67182;DHT22;54114;53.524;49.396;2023-04-21T17:00:36;17.00;35.10
67182;DHT22;54114;53.524;49.396;2023-04-21T17:03:05;17.00;35.30
67182;DHT22;54114;53.524;49.396;2023-04-21T17:05:34;17.00;35.20
67182;DHT22;54114;53.524;49.396;2023-04-21T17:08:03;17.00;35.30
67182;DHT22;54114;53.524;49.396;2023-04-21T17:10:31;17.00;35.30
67182;DHT22;54114;53.524;49.396;2023-04-21T17:12:57;16.90;35.30
67182;DHT22;54114;53.524;49.396;2023-04-21T17:15:28;17.00;35.40
67182;DHT22;54114;53.524;49.396;2023-04-21T17:17:59;17.10;35.40
67182;DHT22;54114;53.524;49.396;2023-04-21T17:20:28;17.10;35.50
67182;DHT22;54114;53.524;49.396;2023-04-21T17:22:57;17.00;35.50
67182;DHT22;54114;53.524;49.396;2023-04-21T17:25:24;17.00;35.60
67182;DHT22;54114;53.524;49.396;2023-04-21T17:27:53;17.00;35.60
67182;DHT22;54114;53.524;49.396;2023-04-21T17:30:20;17.10;35.60
67182;DHT22;54114;53.524;49.396;2023-04-21T17:32:48;17.10;35.60
67182;DHT22;54114;53.524;49.396;2023-04-21T17:35:17;17.10;35.70
67182;DHT22;54114;53.524;49.396;2023-04-21T17:37:49;17.00;35.70
67182;DHT22;54114;53.524;49.396;2023-04-21T17:40:18;17.00;35.90
67182;DHT22;54114;53.524;49.396;2023-04-21T17:42:48;17.00;36.00
67182;DHT22;54114;53.524;49.396;2023-04-21T17:45:17;16.90;36.10
67182;DHT22;54114;53.524;49.396;2023-04-21T17:47:46;16.90;36.20
67182;DHT22;54114;53.524;49.396;2023-04-21T17:50:13;16.80;36.20
67182;DHT22;54114;53.524;49.396;2023-04-21T17:52:41;16.80;36.20
67182;DHT22;54114;53.524;49.396;2023-04-21T17:55:08;16.80;36.30
67182;DHT22;54114;53.524;49.396;2023-04-21T17:57:43;16.80;36.20
67182;DHT22;54114;53.524;49.396;2023-04-21T18:00:13;16.80;36.20
67182;DHT22;54114;53.524;49.396;2023-04-21T18:02:46;16.80;36.30
67182;DHT22;54114;53.524;49.396;2023-04-21T18:05:12;16.70;36.30
67182;DHT22;54114;53.524;49.396;2023-04-21T18:07:42;16.70;36.50
67182;DHT22;54114;53.524;49.396;2023-04-21T18:10:11;16.60;36.50
67182;DHT22;54114;53.524;49.396;2023-04-21T18:12:43;16.60;36.60